createdAt,value
2019-04-20T00:00:42.941Z,58.6465
2019-04-20T00:01:45.310Z,58.5565
2019-04-20T00:02:53.209Z,58.6053
2019-04-20T00:03:56.356Z,59.5499
2019-04-20T00:04:59.297Z,59.9802
2019-04-20T00:06:03.425Z,60.6394
2019-04-20T00:07:06.258Z,61.0788
2019-04-20T00:08:19.227Z,61.6236
2019-04-20T00:09:24.020Z,61.6602
2019-04-20T00:10:27.365Z,62.1530
2019-04-20T00:11:45.886Z,61.7563
2019-04-20T00:12:53.616Z,61.5259
2019-04-20T00:13:55.210Z,61.5808
2019-04-20T00:14:56.499Z,61.9028
2019-04-20T00:15:58.305Z,60.9216
2019-04-20T00:17:01.290Z,60.7431
2019-04-20T00:18:06.694Z,60.9094
2019-04-20T00:19:15.293Z,61.2116
2019-04-20T00:20:25.956Z,60.8347
2019-04-20T00:21:27.293Z,60.2670
2019-04-20T00:22:38.217Z,60.2457
2019-04-20T00:23:43.071Z,60.1160
2019-04-20T00:24:49.649Z,60.6699
2019-04-20T00:26:05.678Z,60.2136
2019-04-20T00:27:28.464Z,59.6780
2019-04-20T00:28:31.607Z,59.3606
2019-04-20T00:29:36.696Z,59.3210
2019-04-20T00:30:48.039Z,58.7304
2019-04-20T00:31:45.945Z,58.3230
2019-04-20T00:32:55.537Z,58.9548
2019-04-20T00:33:59.359Z,58.8815
2019-04-20T00:34:58.302Z,59.1836
2019-04-20T00:36:01.284Z,59.6002
2019-04-20T00:37:05.348Z,60.4883
2019-04-20T00:38:10.293Z,60.5844
2019-04-20T00:39:15.114Z,60.9552
2019-04-20T00:40:21.280Z,60.4181
2019-04-20T00:41:25.720Z,61.0361
2019-04-20T00:42:36.687Z,61.4221
2019-04-20T00:43:39.102Z,61.8616
2019-04-20T00:44:49.593Z,62.1591
2019-04-20T00:46:02.000Z,63.2898
2019-04-20T00:47:14.222Z,63.3951
2019-04-20T00:48:22.669Z,63.5721
2019-04-20T00:49:30.622Z,63.8437
2019-04-20T00:50:40.404Z,63.9490
2019-04-20T00:51:51.148Z,63.5905
2019-04-20T00:52:54.214Z,63.6057
2019-04-20T00:53:51.861Z,63.3448
2019-04-20T00:54:56.273Z,63.6561
2019-04-20T00:55:59.321Z,63.0503
2019-04-20T00:57:13.492Z,62.7527
2019-04-20T00:58:19.308Z,62.9511
2019-04-20T00:59:32.333Z,63.6042
2019-04-20T01:00:40.733Z,64.0360
2019-04-20T01:01:52.348Z,63.9658
2019-04-20T01:02:55.526Z,64.3519
2019-04-20T01:04:10.733Z,64.6174
2019-04-20T01:06:24.813Z,64.0589
2019-04-20T01:07:29.085Z,64.0757
2019-04-20T01:08:23.355Z,64.0528
2019-04-20T01:09:26.523Z,63.8621
2019-04-20T01:10:37.205Z,63.9338
2019-04-20T01:11:42.250Z,63.4852
2019-04-20T01:12:45.847Z,63.9033
2019-04-20T01:13:55.388Z,64.0223
2019-04-20T01:15:02.743Z,63.3631
2019-04-20T01:16:19.491Z,63.7934
2019-04-20T01:17:14.310Z,63.6286
2019-04-20T01:18:17.303Z,63.3219
2019-04-20T01:19:20.570Z,63.6332
2019-04-20T01:20:26.551Z,64.4923
2019-04-20T01:21:33.430Z,64.2817
2019-04-20T01:22:44.637Z,63.9124
2019-04-20T01:23:52.639Z,64.2283
2019-04-20T01:24:54.611Z,64.2771
2019-04-20T01:26:03.958Z,64.5335
2019-04-20T01:27:16.752Z,64.3610
2019-04-20T01:28:35.461Z,64.5304
2019-04-20T01:29:32.381Z,64.0574
2019-04-20T01:30:35.964Z,63.5081
2019-04-20T01:31:52.703Z,63.4394
2019-04-20T01:33:00.764Z,64.6677
2019-04-20T01:34:03.046Z,64.0711
2019-04-20T01:35:14.728Z,64.5853
2019-04-20T01:36:34.960Z,64.1443
2019-04-20T01:37:32.792Z,64.1184
2019-04-20T01:38:45.040Z,64.1947
2019-04-20T01:39:43.109Z,65.0294
2019-04-20T01:40:44.428Z,65.2567
2019-04-20T01:41:47.690Z,65.7893
2019-04-20T01:42:51.202Z,65.8106
2019-04-20T01:43:54.453Z,66.0136
2019-04-20T01:44:58.708Z,66.2791
2019-04-20T01:46:11.314Z,66.5675
2019-04-20T01:47:12.068Z,67.2496
2019-04-20T01:48:24.959Z,66.6484
2019-04-20T01:49:28.638Z,66.9886
2019-04-20T01:50:35.345Z,67.8676
2019-04-20T01:51:53.813Z,67.2892
2019-04-20T01:52:58.263Z,67.1351
2019-04-20T01:54:12.018Z,67.3274
2019-04-20T01:55:24.851Z,67.2724
2019-04-20T01:56:30.249Z,66.8452
2019-04-20T01:57:25.977Z,67.0237
2019-04-20T01:58:50.592Z,67.7256
2019-04-20T01:59:49.338Z,67.4693
2019-04-20T02:00:45.947Z,67.5868
2019-04-20T02:01:55.757Z,67.7653
2019-04-20T02:03:01.942Z,67.5685
2019-04-20T02:04:07.330Z,67.4586
2019-04-20T02:05:20.588Z,67.5914
2019-04-20T02:06:25.071Z,67.1061
2019-04-20T02:07:36.703Z,67.1443
2019-04-20T02:08:38.310Z,66.8498
2019-04-20T02:09:47.483Z,67.1244
2019-04-20T02:10:54.369Z,67.4189
2019-04-20T02:12:06.902Z,67.7760
2019-04-20T02:13:06.682Z,67.6875
2019-04-20T02:14:13.438Z,67.7150
2019-04-20T02:15:28.127Z,67.4266
2019-04-20T02:16:33.606Z,67.7150
2019-04-20T02:17:40.752Z,67.6326
2019-04-20T02:18:58.729Z,67.6509
2019-04-20T02:20:10.450Z,67.6966
2019-04-20T02:21:16.582Z,67.9805
2019-04-20T02:22:15.719Z,68.2109
2019-04-20T02:23:25.371Z,68.2643
2019-04-20T02:24:21.676Z,68.2460
2019-04-20T02:25:24.955Z,67.7791
2019-04-20T02:26:28.320Z,68.3146
2019-04-20T02:27:38.646Z,68.6214
2019-04-20T02:29:06.033Z,69.5155
2019-04-20T02:30:14.166Z,68.9754
2019-04-20T02:31:34.914Z,67.5563
2019-04-20T02:32:40.267Z,68.2414
2019-04-20T02:33:59.305Z,68.3879
2019-04-20T02:36:11.033Z,68.3116
2019-04-20T02:38:22.593Z,68.2063
2019-04-20T02:40:38.846Z,67.8950
2019-04-20T02:41:47.737Z,67.9316
2019-04-20T02:42:51.585Z,68.1926
2019-04-20T02:44:06.016Z,68.6183
2019-04-20T02:45:13.020Z,68.8930
2019-04-20T02:46:12.322Z,68.9555
2019-04-20T02:47:21.413Z,69.1432
2019-04-20T02:48:25.268Z,69.2668
2019-04-20T02:49:42.076Z,69.9168
2019-04-20T02:50:43.260Z,70.3105
2019-04-20T02:53:06.082Z,70.2022
2019-04-20T02:55:14.450Z,70.6401
2019-04-20T02:58:41.562Z,70.7729
2019-04-20T02:59:59.547Z,70.5714
2019-04-20T03:00:44.792Z,70.8141
2019-04-20T03:01:52.167Z,70.7698
2019-04-20T03:02:52.871Z,70.5547
2019-04-20T03:03:52.623Z,71.0658
2019-04-20T03:05:06.727Z,70.9667
2019-04-20T03:06:18.478Z,70.3838
2019-04-20T03:07:23.951Z,70.5455
2019-04-20T03:08:38.223Z,70.7912
2019-04-20T03:09:46.988Z,70.4799
2019-04-20T03:11:00.773Z,70.7729
2019-04-20T03:12:23.835Z,70.6035
2019-04-20T03:13:16.737Z,70.8980
2019-04-20T03:14:18.564Z,70.8049
2019-04-20T03:15:30.203Z,70.6630
2019-04-20T03:16:32.415Z,70.3899
2019-04-20T03:17:46.430Z,70.6722
2019-04-20T03:18:51.205Z,70.9163
2019-04-20T03:19:54.992Z,71.1574
2019-04-20T03:21:12.734Z,70.5669
2019-04-20T03:22:23.622Z,70.3014
2019-04-20T03:23:30.053Z,70.3441
2019-04-20T03:24:38.812Z,70.1976
2019-04-20T03:25:43.076Z,68.8228
2019-04-20T03:26:40.812Z,68.6946
2019-04-20T03:27:51.638Z,68.5344
2019-04-20T03:30:42.408Z,67.9454
2019-04-20T03:35:00.591Z,69.6208
2019-04-20T03:36:01.935Z,69.1798
2019-04-20T03:37:08.488Z,68.5542
2019-04-20T03:38:00.160Z,68.5359
2019-04-20T03:39:16.767Z,68.4398
2019-04-20T03:40:17.607Z,69.1264
2019-04-20T03:41:19.553Z,69.4224
2019-04-20T03:42:20.185Z,69.2225
2019-04-20T03:43:24.446Z,68.6717
2019-04-20T03:44:30.702Z,69.0562
2019-04-20T03:45:42.702Z,69.0974
2019-04-20T03:46:51.802Z,68.8594
2019-04-20T03:48:03.043Z,69.0471
2019-04-20T03:49:21.357Z,68.8609
2019-04-20T03:50:31.925Z,68.3391
2019-04-20T03:51:45.346Z,66.8925
2019-04-20T03:52:43.628Z,66.4668
2019-04-20T03:53:50.326Z,67.2755
2019-04-20T03:54:51.366Z,66.1173
2019-04-20T03:56:02.216Z,66.7369
2019-04-20T03:57:24.777Z,67.0665
2019-04-20T03:58:24.217Z,65.9998
2019-04-20T03:59:27.657Z,66.4195
2019-04-20T04:00:36.205Z,65.0919
2019-04-20T04:02:08.746Z,63.7064
2019-04-20T04:03:09.387Z,63.3570
2019-04-20T04:04:12.159Z,63.1006
2019-04-20T04:05:09.457Z,63.6194
2019-04-20T04:06:09.616Z,65.6550
2019-04-20T04:07:18.510Z,64.7990
2019-04-20T04:08:26.686Z,59.6048
2019-04-20T04:09:32.634Z,58.9181
2019-04-20T04:10:50.507Z,61.8051
2019-04-20T04:11:56.030Z,63.1800
2019-04-20T04:12:49.742Z,60.5142
2019-04-20T04:13:54.599Z,61.8708
2019-04-20T04:14:56.324Z,60.9628
2019-04-20T04:16:04.425Z,61.2528
2019-04-20T04:17:07.455Z,59.7559
2019-04-20T04:18:17.835Z,59.8184
2019-04-20T04:19:25.478Z,58.6328
2019-04-20T04:20:34.380Z,58.4634
2019-04-20T04:21:49.842Z,59.3256
2019-04-20T04:23:00.113Z,60.3403
2019-04-20T04:24:05.515Z,60.6882
2019-04-20T04:25:15.008Z,61.4023
2019-04-20T04:26:27.441Z,61.9379
2019-04-20T04:27:38.559Z,62.8443
2019-04-20T04:28:41.139Z,63.6332
2019-04-20T04:29:51.279Z,64.3229
2019-04-20T04:30:59.937Z,65.1163
2019-04-20T04:32:17.299Z,65.5955
2019-04-20T04:34:22.937Z,66.9703
2019-04-20T04:35:24.423Z,67.7012
2019-04-20T04:36:35.915Z,68.3940
2019-04-20T04:37:45.925Z,69.1707
2019-04-20T04:38:58.874Z,69.7795
2019-04-20T04:40:14.875Z,70.1381
2019-04-20T04:41:13.638Z,70.6691
2019-04-20T04:42:25.117Z,70.8827
2019-04-20T04:43:26.732Z,70.9789
2019-04-20T04:44:30.231Z,71.0796
2019-04-20T04:45:26.541Z,71.2169
2019-04-20T04:46:33.895Z,71.2825
2019-04-20T04:47:39.306Z,71.5251
2019-04-20T04:48:45.978Z,71.8669
2019-04-20T04:50:01.054Z,71.7540
2019-04-20T04:51:03.843Z,71.9280
2019-04-20T04:52:11.161Z,71.8959
2019-04-20T04:53:27.175Z,71.9829
2019-04-20T04:54:34.051Z,71.9463
2019-04-20T04:55:41.767Z,72.1141
2019-04-20T04:56:39.626Z,72.0836
2019-04-20T04:57:43.244Z,71.2551
2019-04-20T04:58:46.756Z,71.5709
2019-04-20T04:59:50.821Z,71.5572
2019-04-20T05:01:03.761Z,71.6609
2019-04-20T05:02:03.410Z,72.1523
2019-04-20T05:03:23.422Z,72.2255
2019-04-20T05:04:33.937Z,72.3339
2019-04-20T05:05:41.360Z,72.3018
2019-04-20T05:06:46.996Z,72.4941
2019-04-20T05:07:52.169Z,73.3379
2019-04-20T05:08:51.378Z,73.5302
2019-04-20T05:09:54.873Z,73.8216
2019-04-20T05:10:58.343Z,74.0414
2019-04-20T05:12:07.209Z,74.4137
2019-04-20T05:13:09.311Z,74.9340
2019-04-20T05:14:20.284Z,75.0957
2019-04-20T05:15:33.671Z,75.1781
2019-04-20T05:16:45.090Z,75.6466
2019-04-20T05:18:00.210Z,75.6680
2019-04-20T05:19:10.484Z,75.8648
2019-04-20T05:20:09.280Z,75.8785
2019-04-20T05:21:24.496Z,76.0861
2019-04-20T05:22:35.149Z,76.2554
2019-04-20T05:23:28.025Z,76.3104
2019-04-20T05:24:41.402Z,76.5530
2019-04-20T05:25:57.081Z,76.6445
2019-04-20T05:27:01.899Z,76.5423
2019-04-20T05:28:08.198Z,76.6110
2019-04-20T05:29:06.764Z,76.4569
2019-04-20T05:30:05.571Z,76.2829
2019-04-20T05:31:10.230Z,76.0021
2019-04-20T05:32:18.545Z,75.6146
2019-04-20T05:33:34.177Z,75.3536
2019-04-20T05:34:54.094Z,75.3628
2019-04-20T05:36:01.860Z,74.8028
2019-04-20T05:37:17.708Z,74.4305
2019-04-20T05:38:23.075Z,74.0185
2019-04-20T05:39:27.745Z,73.6767
2019-04-20T05:40:35.229Z,73.1487
2019-04-20T05:41:38.331Z,72.9351
2019-04-20T05:42:48.662Z,72.3308
2019-04-20T05:43:50.570Z,71.2963
2019-04-20T05:45:01.883Z,71.1315
2019-04-20T05:46:06.251Z,70.9346
2019-04-20T05:47:18.085Z,71.1711
2019-04-20T05:48:20.513Z,70.5486
2019-04-20T05:49:34.515Z,69.8131
2019-04-20T05:50:42.382Z,69.2775
2019-04-20T05:51:47.718Z,68.7007
2019-04-20T05:53:01.676Z,68.8151
2019-04-20T05:54:11.957Z,69.0303
2019-04-20T05:55:16.181Z,68.6946
2019-04-20T05:56:29.346Z,68.9326
2019-04-20T05:57:34.948Z,68.2933
2019-04-20T05:58:38.787Z,68.2338
2019-04-20T05:59:51.377Z,68.7419
2019-04-20T06:01:01.621Z,69.3141
2019-04-20T06:02:08.034Z,69.0761
2019-04-20T06:03:05.673Z,68.3558
2019-04-20T06:04:30.217Z,68.3711
2019-04-20T06:05:28.726Z,67.8218
2019-04-20T06:06:37.681Z,67.2404
2019-04-20T06:07:42.407Z,67.1519
2019-04-20T06:08:56.627Z,66.4240
2019-04-20T06:09:59.682Z,66.2318
2019-04-20T06:11:07.985Z,66.3935
2019-04-20T06:12:19.847Z,65.4276
2019-04-20T06:13:17.791Z,64.7669
2019-04-20T06:14:17.203Z,64.1077
2019-04-20T06:15:42.079Z,63.5645
2019-04-20T06:16:52.776Z,62.7405
2019-04-20T06:17:53.180Z,62.2553
2019-04-20T06:19:18.260Z,61.2696
2019-04-20T06:20:12.748Z,60.7935
2019-04-20T06:21:26.577Z,60.0839
2019-04-20T06:22:31.022Z,59.4247
2019-04-20T06:23:41.529Z,58.3047
2019-04-20T06:24:53.110Z,57.0596
2019-04-20T06:26:03.837Z,56.0525
2019-04-20T06:27:00.826Z,55.7733
2019-04-20T06:28:06.653Z,55.5673
2019-04-20T06:29:16.433Z,56.1013
2019-04-20T06:30:20.896Z,54.8745
2019-04-20T06:31:32.476Z,53.8537
2019-04-20T06:32:40.385Z,54.6639
2019-04-20T06:34:01.478Z,55.6985
2019-04-20T06:34:53.507Z,57.2549
2019-04-20T06:36:14.021Z,57.9065
2019-04-20T06:37:09.872Z,57.7173
2019-04-20T06:38:38.324Z,57.2747
2019-04-20T06:40:59.361Z,56.2402
2019-04-20T06:42:02.250Z,55.7366
2019-04-20T06:42:53.483Z,55.0912
2019-04-20T06:44:03.841Z,54.6181
2019-04-20T06:45:16.221Z,54.4945
2019-04-20T06:46:14.833Z,54.1512
2019-04-20T06:47:27.300Z,54.2107
2019-04-20T06:48:41.372Z,54.5769
2019-04-20T06:49:55.090Z,54.3526
2019-04-20T06:50:44.747Z,54.3770
2019-04-20T06:51:59.324Z,54.0505
2019-04-20T06:53:12.935Z,54.3709
2019-04-20T06:54:05.497Z,54.6517
2019-04-20T06:55:14.250Z,54.3999
2019-04-20T06:56:33.632Z,53.6751
2019-04-20T06:57:36.821Z,53.4066
2019-04-20T06:58:54.474Z,54.1299
2019-04-20T06:59:58.016Z,54.0337
2019-04-20T07:01:03.689Z,53.6431
2019-04-20T07:02:17.278Z,53.2494
2019-04-20T07:03:30.976Z,52.8328
2019-04-20T07:04:38.765Z,53.2143
2019-04-20T07:05:34.681Z,53.0114
2019-04-20T07:09:00.565Z,51.2078
2019-04-20T07:11:19.482Z,50.3349
2019-04-20T07:12:17.194Z,48.8731
2019-04-20T07:13:17.658Z,48.9982
2019-04-20T07:14:28.944Z,49.1524
2019-04-20T07:15:42.747Z,49.0120
2019-04-20T07:16:53.179Z,48.1880
2019-04-20T07:18:06.132Z,47.8202
2019-04-20T07:19:07.882Z,47.8386
2019-04-20T07:20:12.840Z,47.2709
2019-04-20T07:21:37.519Z,46.5950
2019-04-20T07:23:42.290Z,46.6865
2019-04-20T07:24:59.291Z,47.1565
2019-04-20T07:26:02.314Z,47.2023
2019-04-20T07:27:10.380Z,47.4907
2019-04-20T07:28:24.152Z,48.0461
2019-04-20T07:29:26.961Z,48.1285
2019-04-20T07:30:33.454Z,48.3467
2019-04-20T07:31:38.025Z,48.5542
2019-04-20T07:32:52.525Z,48.6915
2019-04-20T07:33:52.105Z,48.8380
2019-04-20T07:35:03.062Z,49.0333
2019-04-20T07:36:15.431Z,50.3334
2019-04-20T07:38:36.584Z,52.6421
2019-04-20T07:39:37.312Z,53.8125
2019-04-20T07:40:38.189Z,54.5464
2019-04-20T07:41:57.257Z,54.4305
2019-04-20T07:42:55.364Z,54.1711
2019-04-20T07:44:28.091Z,54.0459
2019-04-20T07:45:16.952Z,54.3038
2019-04-20T07:46:37.556Z,54.1650
2019-04-20T07:47:34.465Z,54.5724
2019-04-20T07:48:39.528Z,54.4213
2019-04-20T07:49:41.624Z,54.6090
2019-04-20T07:50:44.883Z,54.1833
2019-04-20T07:51:43.867Z,54.2809
2019-04-20T07:53:07.449Z,54.4442
2019-04-20T07:54:24.704Z,53.5836
2019-04-20T07:56:39.388Z,52.9747
2019-04-20T07:57:40.497Z,52.8298
2019-04-20T07:58:40.103Z,52.8786
2019-04-20T07:59:59.079Z,53.5332
2019-04-20T08:01:19.665Z,53.7346
2019-04-20T08:02:28.981Z,52.2896
2019-04-20T08:03:29.366Z,51.7800
2019-04-20T08:04:30.053Z,52.2377
2019-04-20T08:05:31.124Z,52.5139
2019-04-20T08:06:36.889Z,52.2896
2019-04-20T08:07:44.752Z,52.4941
2019-04-20T08:08:58.668Z,52.5780
2019-04-20T08:09:58.472Z,52.6238
2019-04-20T08:11:16.430Z,50.7362
2019-04-20T08:12:34.086Z,50.8156
2019-04-20T08:13:42.094Z,50.6416
2019-04-20T08:14:44.453Z,50.6096
2019-04-20T08:18:07.053Z,50.7408
2019-04-20T08:19:12.281Z,51.0857
2019-04-20T08:20:23.317Z,51.6991
2019-04-20T08:21:28.593Z,52.2438
2019-04-20T08:22:42.079Z,52.5917
2019-04-20T08:23:44.088Z,52.9351
2019-04-20T08:24:48.778Z,53.2677
2019-04-20T08:25:56.076Z,53.1823
2019-04-20T08:26:55.885Z,52.9946
2019-04-20T08:27:59.108Z,53.1579
2019-04-20T08:29:09.186Z,52.3171
2019-04-20T08:30:32.307Z,52.2393
2019-04-20T08:31:33.494Z,51.7494
2019-04-20T08:32:45.220Z,51.4611
2019-04-20T08:34:07.778Z,51.1986
2019-04-20T08:35:10.473Z,50.6081
2019-04-20T08:36:10.803Z,51.1437
2019-04-20T08:37:17.467Z,50.3532
2019-04-20T08:39:46.365Z,49.9306
2019-04-20T08:40:45.807Z,48.3238
2019-04-20T08:41:58.893Z,48.4703
2019-04-20T08:43:11.204Z,48.9418
2019-04-20T08:44:21.429Z,46.9978
2019-04-20T08:45:16.767Z,47.2526
2019-04-20T08:46:20.615Z,46.8727
2019-04-20T08:47:38.195Z,47.0466
2019-04-20T08:48:43.571Z,46.9459
2019-04-20T08:49:49.179Z,46.9062
2019-04-20T08:50:58.439Z,47.1901
2019-04-20T08:52:12.840Z,47.7531
2019-04-20T08:54:16.456Z,47.4678
2019-04-20T08:55:23.390Z,47.6417
2019-04-20T08:56:24.608Z,47.6234
2019-04-20T08:57:22.612Z,47.7394
2019-04-20T08:58:25.296Z,46.6758
2019-04-20T08:59:27.318Z,45.9678
2019-04-20T09:00:38.328Z,44.3702
2019-04-20T09:01:39.438Z,42.1134
2019-04-20T09:02:48.906Z,40.0793
2019-04-20T09:04:03.523Z,40.0031
2019-04-20T09:05:04.919Z,41.4710
2019-04-20T09:06:24.959Z,41.1597
2019-04-20T09:07:22.580Z,40.3861
2019-04-20T09:08:29.848Z,38.4833
2019-04-20T09:09:55.813Z,37.5540
2019-04-20T09:11:00.030Z,36.8414
2019-04-20T09:12:07.584Z,35.6390
2019-04-20T09:13:08.336Z,35.7580
2019-04-20T09:14:05.909Z,34.7951
2019-04-20T09:15:10.572Z,34.7646
2019-04-20T09:16:13.329Z,34.7875
2019-04-20T09:17:24.338Z,35.0072
2019-04-20T09:18:31.292Z,34.9889
2019-04-20T09:19:42.760Z,34.5953
2019-04-20T09:20:50.711Z,34.8089
2019-04-20T09:21:55.147Z,34.6258
2019-04-20T09:23:14.573Z,33.0602
2019-04-20T09:24:32.982Z,33.8430
2019-04-20T09:25:48.393Z,32.7306
2019-04-20T09:26:42.292Z,33.5225
2019-04-20T09:27:38.411Z,33.6645
2019-04-20T09:28:48.000Z,34.1405
2019-04-20T09:30:03.333Z,34.3511
2019-04-20T09:31:11.944Z,33.9117
2019-04-20T09:32:16.914Z,33.3898
2019-04-20T09:33:28.896Z,32.4804
2019-04-20T09:34:41.886Z,32.4346
2019-04-20T09:35:42.923Z,31.8669
2019-04-20T09:36:48.399Z,32.0806
2019-04-20T09:38:01.808Z,33.1350
2019-04-20T09:39:01.175Z,34.5541
2019-04-20T09:40:15.867Z,34.0124
2019-04-20T09:41:35.346Z,34.0948
2019-04-20T09:42:14.312Z,34.2412
2019-04-20T09:43:18.547Z,32.3110
2019-04-20T09:44:25.635Z,32.1950
2019-04-20T09:45:37.354Z,31.4763
2019-04-20T09:46:44.390Z,33.0739
2019-04-20T09:47:51.187Z,31.4229
2019-04-20T09:48:59.012Z,30.9133
2019-04-20T09:50:20.946Z,31.5084
2019-04-20T09:51:30.204Z,32.1401
2019-04-20T09:52:32.201Z,32.0897
2019-04-20T09:53:39.389Z,32.9381
2019-04-20T09:54:45.969Z,31.9814
2019-04-20T09:55:59.490Z,31.4855
2019-04-20T09:57:09.117Z,31.3115
2019-04-20T09:58:12.311Z,32.6253
2019-04-20T09:59:22.038Z,32.4331
2019-04-20T10:00:28.906Z,31.7327
2019-04-20T10:01:31.235Z,30.6950
2019-04-20T10:02:34.472Z,30.5715
2019-04-20T10:03:38.818Z,30.7805
2019-04-20T10:04:42.289Z,30.4570
2019-04-20T10:05:45.483Z,30.4891
2019-04-20T10:06:49.613Z,32.0867
2019-04-20T10:07:56.912Z,30.6630
2019-04-20T10:09:03.477Z,32.5444
2019-04-20T10:10:17.860Z,33.3776
2019-04-20T10:11:17.264Z,31.8990
2019-04-20T10:12:21.727Z,30.6722
2019-04-20T10:13:25.312Z,29.4774
2019-04-20T10:14:28.882Z,29.3523
2019-04-20T10:15:32.990Z,27.9347
2019-04-20T10:16:37.739Z,28.5023
2019-04-20T10:17:41.481Z,27.3060
2019-04-20T10:18:48.113Z,27.3472
2019-04-20T10:19:53.431Z,27.1061
2019-04-20T10:20:56.280Z,26.3859
2019-04-20T10:22:02.415Z,28.5023
2019-04-20T10:23:06.697Z,28.3635
2019-04-20T10:24:10.528Z,27.7882
2019-04-20T10:25:13.317Z,27.7958
2019-04-20T10:26:16.464Z,27.1229
2019-04-20T10:27:20.570Z,27.9652
2019-04-20T10:28:25.530Z,28.9540
2019-04-20T10:29:28.370Z,28.1025
2019-04-20T10:30:32.466Z,27.8477
2019-04-20T10:31:42.644Z,28.6625
2019-04-20T10:32:47.235Z,30.6310
2019-04-20T10:33:51.445Z,30.4738
2019-04-20T10:34:54.876Z,31.2337
2019-04-20T10:35:59.442Z,31.0887
2019-04-20T10:37:03.749Z,31.1116
2019-04-20T10:38:07.528Z,30.6950
2019-04-20T10:39:10.877Z,28.9464
2019-04-20T10:40:27.973Z,28.5008
2019-04-20T10:41:36.135Z,27.4037
2019-04-20T10:42:30.267Z,27.3762
2019-04-20T10:43:33.354Z,29.0196
2019-04-20T10:44:36.921Z,29.4133
2019-04-20T10:45:41.224Z,29.1066
2019-04-20T10:46:44.929Z,29.1936
2019-04-20T10:47:48.278Z,27.4495
2019-04-20T10:48:53.304Z,27.2114
2019-04-20T10:49:58.887Z,26.7720
2019-04-20T10:51:03.131Z,26.1997
2019-04-20T10:52:07.485Z,25.1225
2019-04-20T10:53:10.343Z,24.0803
2019-04-20T10:54:14.223Z,24.5838
2019-04-20T10:55:18.599Z,26.5248
2019-04-20T10:56:21.443Z,26.7308
2019-04-20T10:57:25.670Z,26.5614
2019-04-20T10:58:29.587Z,27.6310
2019-04-20T10:59:32.389Z,27.4891
2019-04-20T11:00:35.589Z,27.3899
2019-04-20T11:01:38.317Z,27.4342
2019-04-20T11:02:43.940Z,26.9581
2019-04-20T11:03:48.275Z,26.9230
2019-04-20T11:04:52.538Z,28.2811
2019-04-20T11:05:56.415Z,27.6631
2019-04-20T11:07:00.722Z,27.7516
2019-04-20T11:08:04.393Z,26.6972
2019-04-20T11:09:08.745Z,27.5502
2019-04-20T11:10:19.792Z,27.1733
2019-04-20T11:11:25.218Z,26.9078
2019-04-20T11:12:28.469Z,26.4240
2019-04-20T11:13:31.342Z,26.9230
2019-04-20T11:14:37.212Z,27.8462
2019-04-20T11:15:44.427Z,28.0201
2019-04-20T11:16:48.462Z,27.8920
2019-04-20T11:17:51.435Z,27.6219
2019-04-20T11:18:55.497Z,27.3350
2019-04-20T11:19:59.188Z,26.8040
2019-04-20T11:21:03.525Z,27.4891
2019-04-20T11:22:06.316Z,26.1067
2019-04-20T11:23:10.629Z,26.2898
2019-04-20T11:24:14.371Z,26.5690
2019-04-20T11:25:17.345Z,27.9026
2019-04-20T11:26:20.344Z,27.9988
2019-04-20T11:27:23.304Z,28.1636
2019-04-20T11:28:26.326Z,27.6539
2019-04-20T11:29:29.290Z,29.1707
2019-04-20T11:30:32.342Z,28.2231
2019-04-20T11:31:39.513Z,27.4159
2019-04-20T11:32:44.331Z,27.7134
2019-04-20T11:33:48.025Z,27.0039
2019-04-20T11:34:51.325Z,26.3508
2019-04-20T11:35:54.988Z,26.9230
2019-04-20T11:36:59.233Z,28.1804
2019-04-20T11:38:02.946Z,27.9393
2019-04-20T11:39:07.127Z,28.5481
2019-04-20T11:40:10.918Z,28.2139
2019-04-20T11:41:22.753Z,27.8782
2019-04-20T11:42:23.544Z,27.3426
2019-04-20T11:43:26.285Z,27.6463
2019-04-20T11:44:31.457Z,27.5349
2019-04-20T11:45:38.422Z,27.9713
2019-04-20T11:46:42.803Z,26.8070
2019-04-20T11:47:47.400Z,27.6051
2019-04-20T11:48:51.707Z,27.9622
2019-04-20T11:49:55.461Z,28.1209
2019-04-20T11:50:58.353Z,27.9255
2019-04-20T11:52:01.521Z,28.1117
2019-04-20T11:53:05.265Z,27.2740
2019-04-20T11:54:08.377Z,26.5660
2019-04-20T11:55:12.519Z,27.5868
2019-04-20T11:56:23.806Z,26.3081
2019-04-20T11:57:23.313Z,24.9866
2019-04-20T11:58:26.306Z,25.4398
2019-04-20T11:59:30.346Z,24.9409
2019-04-20T12:00:34.290Z,24.6159
2019-04-20T12:01:47.651Z,24.8249
2019-04-20T12:02:53.560Z,24.7379
2019-04-20T12:04:04.110Z,24.9165
2019-04-20T12:05:17.357Z,25.1011
2019-04-20T12:06:13.306Z,25.7176
2019-04-20T12:07:19.223Z,25.5253
2019-04-20T12:08:22.941Z,25.6092
2019-04-20T12:09:26.342Z,25.8778
2019-04-20T12:10:30.049Z,26.1295
2019-04-20T12:11:47.533Z,26.1448
2019-04-20T12:12:47.293Z,26.1524
2019-04-20T12:13:50.307Z,26.5568
2019-04-20T12:14:54.671Z,26.5934
2019-04-20T12:15:59.360Z,25.5863
2019-04-20T12:17:03.672Z,25.5863
2019-04-20T12:18:07.583Z,25.0950
2019-04-20T12:19:10.553Z,24.3183
2019-04-20T12:20:14.533Z,24.2573
2019-04-20T12:21:17.286Z,25.7511
2019-04-20T12:22:21.506Z,26.7613
2019-04-20T12:23:24.528Z,26.6331
2019-04-20T12:24:27.310Z,26.6712
2019-04-20T12:25:34.173Z,27.1870
2019-04-20T12:26:38.681Z,26.8589
2019-04-20T12:27:48.806Z,26.7521
2019-04-20T12:28:49.686Z,26.5064
2019-04-20T12:29:52.277Z,27.1199
2019-04-20T12:31:03.053Z,26.9764
2019-04-20T12:32:05.431Z,27.2648
2019-04-20T12:33:11.501Z,27.5395
2019-04-20T12:34:14.317Z,26.4012
2019-04-20T12:35:18.163Z,27.0863
2019-04-20T12:36:21.319Z,27.5349
2019-04-20T12:37:25.068Z,27.4723
2019-04-20T12:38:28.374Z,26.8452
2019-04-20T12:39:31.308Z,27.1778
2019-04-20T12:40:35.417Z,26.4820
2019-04-20T12:41:45.345Z,26.7567
2019-04-20T12:42:46.635Z,27.4540
2019-04-20T12:43:49.815Z,27.6905
2019-04-20T12:44:53.427Z,27.4998
2019-04-20T12:45:55.853Z,27.3014
2019-04-20T12:46:59.642Z,26.9551
2019-04-20T12:48:03.773Z,26.8818
2019-04-20T12:49:07.671Z,27.8828
2019-04-20T12:50:11.872Z,27.3808
2019-04-20T12:51:15.583Z,28.0217
2019-04-20T12:52:18.583Z,28.0293
2019-04-20T12:53:22.344Z,28.0629
2019-04-20T12:54:25.326Z,28.0110
2019-04-20T12:55:28.401Z,28.3497
2019-04-20T12:56:32.663Z,27.7546
2019-04-20T12:57:36.552Z,28.2261
2019-04-20T12:58:42.968Z,27.8706
2019-04-20T12:59:48.712Z,27.5319
2019-04-20T13:00:52.429Z,27.0359
2019-04-20T13:01:55.490Z,26.7887
2019-04-20T13:02:59.150Z,27.3350
2019-04-20T13:04:04.499Z,27.5639
2019-04-20T13:05:09.427Z,27.5731
2019-04-20T13:06:12.276Z,27.8843
2019-04-20T13:07:15.627Z,28.0934
2019-04-20T13:08:29.595Z,27.4479
2019-04-20T13:09:26.397Z,27.3106
2019-04-20T13:10:29.612Z,27.1885
2019-04-20T13:11:44.353Z,26.8666
2019-04-20T13:12:40.679Z,26.5476
2019-04-20T13:13:44.339Z,26.3554
2019-04-20T13:14:48.443Z,27.1733
2019-04-20T13:15:52.149Z,26.7521
2019-04-20T13:16:56.825Z,26.9352
2019-04-20T13:18:01.245Z,26.7536
2019-04-20T13:19:05.608Z,27.8508
2019-04-20T13:20:08.307Z,26.9917
2019-04-20T13:21:11.349Z,27.9286
2019-04-20T13:22:14.839Z,27.5822
2019-04-20T13:23:20.144Z,27.7501
2019-04-20T13:24:23.324Z,27.5395
2019-04-20T13:25:26.380Z,27.1244
2019-04-20T13:26:29.329Z,26.6651
2019-04-20T13:27:32.304Z,26.9032
2019-04-20T13:28:35.310Z,26.1662
2019-04-20T13:29:38.395Z,26.1158
2019-04-20T13:30:41.893Z,26.5507
2019-04-20T13:31:45.272Z,27.3106
2019-04-20T13:32:48.332Z,27.4434
2019-04-20T13:33:51.641Z,27.5166
2019-04-20T13:34:54.366Z,27.5578
2019-04-20T13:35:58.473Z,26.5827
2019-04-20T13:37:02.256Z,26.0380
2019-04-20T13:38:05.301Z,25.7816
2019-04-20T13:39:08.324Z,25.3986
2019-04-20T13:40:11.335Z,25.7816
2019-04-20T13:41:15.668Z,24.9210
2019-04-20T13:42:24.556Z,25.1423
2019-04-20T13:43:27.961Z,25.0874
2019-04-20T13:44:32.399Z,25.3986
2019-04-20T13:45:35.282Z,24.7700
2019-04-20T13:46:38.887Z,24.7608
2019-04-20T13:47:43.208Z,24.0116
2019-04-20T13:48:46.842Z,24.6006
2019-04-20T13:49:51.348Z,25.5894
2019-04-20T13:50:56.074Z,25.0034
2019-04-20T13:51:59.321Z,25.9480